createdAt,value
2023-03-31T00:02:23.378Z,8.39
2023-03-31T00:05:12.279Z,8.46
2023-03-31T00:08:01.281Z,8.38
2023-03-31T00:10:49.507Z,8.37
2023-03-31T00:13:36.972Z,8.30
2023-03-31T00:16:27.219Z,8.40
2023-03-31T00:19:07.793Z,8.45
2023-03-31T00:21:54.095Z,8.34
2023-03-31T00:24:37.976Z,8.30
2023-03-31T00:27:27.710Z,8.31
2023-03-31T00:30:11.374Z,8.19
2023-03-31T00:33:00.731Z,8.20
2023-03-31T00:35:41.114Z,8.16
2023-03-31T00:38:24.699Z,8.19
2023-03-31T00:41:15.389Z,8.16
2023-03-31T00:44:30.326Z,8.22
2023-03-31T00:47:12.668Z,8.08
2023-03-31T00:49:57.227Z,8.03
2023-03-31T00:52:58.320Z,8.12
2023-03-31T00:55:56.076Z,8.19
2023-03-31T00:58:43.992Z,8.18
2023-03-31T01:01:32.501Z,8.20
2023-03-31T01:04:29.968Z,8.14
2023-03-31T01:07:52.647Z,8.07
2023-03-31T01:10:39.392Z,8.11
2023-03-31T01:13:26.686Z,8.13
2023-03-31T01:16:07.647Z,8.02
2023-03-31T01:18:49.897Z,8.02
2023-03-31T01:21:59.899Z,8.04
2023-03-31T01:25:07.536Z,7.94
2023-03-31T01:28:16.396Z,7.76
2023-03-31T01:31:15.795Z,7.80
2023-03-31T01:34:29.740Z,7.64
2023-03-31T01:37:42.796Z,7.57
2023-03-31T01:40:38.894Z,7.48
2023-03-31T01:43:57.458Z,7.54
2023-03-31T01:47:01.678Z,7.45
2023-03-31T01:50:01.505Z,7.30
2023-03-31T01:53:08.958Z,7.15
2023-03-31T01:56:05.815Z,7.04
2023-03-31T01:58:48.182Z,6.95
2023-03-31T02:01:41.160Z,6.93
2023-03-31T02:04:33.712Z,6.81
2023-03-31T02:07:40.385Z,6.78
2023-03-31T02:10:20.609Z,6.80
2023-03-31T02:13:04.426Z,6.69
2023-03-31T02:15:53.522Z,6.59
2023-03-31T02:18:39.171Z,6.60
2023-03-31T02:21:18.020Z,6.31
2023-03-31T02:24:10.435Z,6.23
2023-03-31T02:26:58.957Z,6.25
2023-03-31T02:29:48.916Z,6.16
2023-03-31T02:32:42.720Z,6.18
2023-03-31T02:35:31.402Z,6.10
2023-03-31T02:38:11.874Z,6.03
2023-03-31T02:41:01.360Z,5.99
2023-03-31T02:43:39.253Z,6.02
2023-03-31T02:46:23.946Z,5.97
2023-03-31T02:49:05.265Z,5.84
2023-03-31T02:52:06.707Z,5.84
2023-03-31T02:55:01.121Z,5.83
2023-03-31T02:57:56.138Z,5.80
2023-03-31T03:01:03.427Z,5.75
2023-03-31T03:04:12.464Z,5.69
2023-03-31T03:07:15.522Z,5.66
2023-03-31T03:10:29.489Z,5.71
2023-03-31T03:13:26.750Z,5.71
2023-03-31T03:16:14.120Z,5.82
2023-03-31T03:19:08.870Z,5.67
2023-03-31T03:21:47.688Z,5.55
2023-03-31T03:24:34.330Z,5.57
2023-03-31T03:27:16.887Z,5.49
2023-03-31T03:30:00.008Z,5.53
2023-03-31T03:32:44.407Z,5.48
2023-03-31T03:35:34.369Z,5.48
2023-03-31T03:38:23.870Z,5.45
2023-03-31T03:41:13.750Z,5.35
2023-03-31T03:44:00.029Z,5.34
2023-03-31T03:46:43.203Z,5.38
2023-03-31T03:49:29.747Z,5.26
2023-03-31T03:52:21.133Z,5.31
2023-03-31T03:55:01.967Z,5.33
2023-03-31T03:57:50.404Z,5.29
2023-03-31T04:00:37.196Z,5.25
2023-03-31T04:03:20.708Z,5.25
2023-03-31T04:06:10.841Z,5.22
2023-03-31T04:08:54.358Z,5.31
2023-03-31T04:11:41.615Z,5.36
2023-03-31T04:14:32.140Z,5.28
2023-03-31T04:17:18.879Z,5.20
2023-03-31T04:20:02.478Z,5.12
2023-03-31T04:22:47.386Z,5.06
2023-03-31T04:25:30.879Z,5.07
2023-03-31T04:28:20.646Z,5.14
2023-03-31T04:31:01.403Z,5.02
2023-03-31T04:33:48.236Z,5.07
2023-03-31T04:36:38.363Z,5.18
2023-03-31T04:39:41.287Z,5.23
2023-03-31T04:42:25.005Z,5.17
2023-03-31T04:45:08.698Z,5.20
2023-03-31T04:47:55.184Z,5.25
2023-03-31T04:50:38.684Z,5.31
2023-03-31T04:53:16.558Z,5.31
2023-03-31T04:55:54.788Z,5.33
2023-03-31T04:58:38.084Z,5.36
2023-03-31T05:01:24.459Z,5.33
2023-03-31T05:04:10.314Z,5.37
2023-03-31T05:06:53.722Z,5.36
2023-03-31T05:09:44.038Z,5.47
2023-03-31T05:12:30.125Z,5.46
2023-03-31T05:15:09.780Z,5.57
2023-03-31T05:17:53.414Z,5.75
2023-03-31T05:20:44.294Z,5.82
2023-03-31T05:23:33.612Z,5.91
2023-03-31T05:26:25.384Z,5.99
2023-03-31T05:29:10.314Z,6.09
2023-03-31T05:31:53.783Z,6.19
2023-03-31T05:34:43.235Z,6.34
2023-03-31T05:37:31.830Z,6.52
2023-03-31T05:40:29.416Z,6.74
2023-03-31T05:43:13.165Z,7.04
2023-03-31T05:46:02.223Z,7.51
2023-03-31T05:48:48.144Z,7.93
2023-03-31T05:51:32.979Z,8.44
2023-03-31T05:54:15.624Z,8.87
2023-03-31T05:57:10.856Z,9.31
2023-03-31T06:00:02.566Z,9.78
2023-03-31T06:02:46.273Z,10.13
2023-03-31T06:05:35.366Z,10.54
2023-03-31T06:08:28.161Z,10.95
2023-03-31T06:11:15.181Z,11.01
2023-03-31T06:14:13.330Z,11.24
2023-03-31T06:17:01.865Z,11.54
2023-03-31T06:19:46.350Z,11.93
2023-03-31T06:22:29.460Z,12.26
2023-03-31T06:25:21.881Z,12.58
2023-03-31T06:28:01.446Z,12.95
2023-03-31T06:30:47.653Z,13.33
2023-03-31T06:33:40.083Z,13.63
2023-03-31T06:36:31.985Z,13.80
2023-03-31T06:39:12.408Z,13.88
2023-03-31T06:42:02.910Z,14.01
2023-03-31T06:44:59.367Z,14.19
2023-03-31T06:47:46.190Z,14.46
2023-03-31T06:50:30.448Z,14.64
2023-03-31T06:53:17.322Z,14.54
2023-03-31T06:56:09.677Z,14.31
2023-03-31T06:58:53.571Z,14.59
2023-03-31T07:01:48.827Z,14.62
2023-03-31T07:04:30.521Z,14.29
2023-03-31T07:07:11.282Z,14.28
2023-03-31T07:09:51.401Z,14.55
2023-03-31T07:12:44.767Z,14.68
2023-03-31T07:15:28.760Z,15.06
2023-03-31T07:18:15.994Z,15.17
2023-03-31T07:21:09.953Z,15.58
2023-03-31T07:23:51.046Z,15.72
2023-03-31T07:26:38.376Z,15.52
2023-03-31T07:29:23.689Z,15.79
2023-03-31T07:32:13.726Z,15.81
2023-03-31T07:34:54.376Z,16.18
2023-03-31T07:37:43.271Z,16.35
2023-03-31T07:40:23.589Z,16.42
2023-03-31T07:43:03.908Z,15.99
2023-03-31T07:45:44.141Z,15.84
2023-03-31T07:48:34.096Z,15.80
2023-03-31T07:51:14.662Z,15.98
2023-03-31T07:54:00.611Z,15.87
2023-03-31T07:56:47.229Z,15.87
2023-03-31T07:59:30.486Z,16.27
2023-03-31T08:02:20.646Z,15.88
2023-03-31T08:05:11.711Z,16.24
2023-03-31T08:07:52.809Z,16.32
2023-03-31T08:10:37.938Z,16.22
2023-03-31T08:13:15.094Z,15.76
2023-03-31T08:15:56.300Z,16.13
2023-03-31T08:18:50.831Z,16.33
2023-03-31T08:21:31.297Z,16.81
2023-03-31T08:24:23.402Z,16.79
2023-03-31T08:27:04.700Z,17.26
2023-03-31T08:29:47.511Z,17.46
2023-03-31T08:32:34.688Z,17.57
2023-03-31T08:35:10.466Z,17.53
2023-03-31T08:37:49.551Z,17.78
2023-03-31T08:40:32.425Z,17.89
2023-03-31T08:43:28.376Z,17.48
2023-03-31T08:46:21.225Z,17.49
2023-03-31T08:49:25.658Z,17.75
2023-03-31T08:52:09.975Z,18.10
2023-03-31T08:54:52.660Z,18.18
2023-03-31T08:57:43.021Z,17.74
2023-03-31T09:00:26.741Z,17.89
2023-03-31T09:03:19.439Z,17.70
2023-03-31T09:06:12.414Z,17.71
2023-03-31T09:09:08.371Z,17.90
2023-03-31T09:12:08.082Z,18.11
2023-03-31T09:15:05.513Z,18.42
2023-03-31T09:17:52.118Z,18.57
2023-03-31T09:20:32.123Z,18.71
2023-03-31T09:23:23.710Z,18.59
2023-03-31T09:26:11.072Z,18.93
2023-03-31T09:28:54.031Z,19.36
2023-03-31T09:31:36.641Z,19.24
2023-03-31T09:34:38.637Z,19.17
2023-03-31T09:37:19.830Z,19.61
2023-03-31T09:40:00.400Z,19.60
2023-03-31T09:42:42.166Z,19.13
2023-03-31T09:45:34.118Z,18.95
2023-03-31T09:48:46.344Z,18.83
2023-03-31T09:51:39.071Z,19.12
2023-03-31T09:54:58.482Z,19.38
2023-03-31T09:57:50.762Z,19.48
2023-03-31T10:00:33.380Z,19.81
2023-03-31T10:03:20.361Z,20.05
2023-03-31T10:06:02.428Z,20.44
2023-03-31T10:09:08.071Z,20.44
2023-03-31T10:12:12.812Z,20.51
2023-03-31T10:14:54.568Z,20.42
2023-03-31T10:17:47.042Z,20.39
2023-03-31T10:20:49.403Z,20.44
2023-03-31T10:23:44.909Z,20.12
2023-03-31T10:26:32.720Z,20.06
2023-03-31T10:29:15.539Z,20.11
2023-03-31T10:31:54.554Z,20.29
2023-03-31T10:34:31.643Z,20.46
2023-03-31T10:37:36.616Z,20.45
2023-03-31T10:40:38.007Z,20.30
2023-03-31T10:43:30.244Z,20.62
2023-03-31T10:46:13.376Z,20.32
2023-03-31T10:48:55.368Z,20.11
2023-03-31T10:51:40.730Z,20.26
2023-03-31T10:54:19.270Z,20.32
2023-03-31T10:57:35.112Z,20.27
2023-03-31T11:00:39.299Z,19.97
2023-03-31T11:03:40.585Z,19.67
2023-03-31T11:06:33.312Z,19.27
2023-03-31T11:09:34.433Z,19.75
2023-03-31T11:12:52.870Z,19.53
2023-03-31T11:15:42.990Z,19.15
2023-03-31T11:18:44.364Z,19.31
2023-03-31T11:21:28.424Z,19.51
2023-03-31T11:24:07.314Z,19.63
2023-03-31T11:27:12.741Z,20.08
2023-03-31T11:30:20.438Z,19.89
2023-03-31T11:33:04.358Z,20.39
2023-03-31T11:35:59.841Z,20.79
2023-03-31T11:39:07.815Z,20.11
2023-03-31T11:41:59.045Z,19.61
2023-03-31T11:44:46.057Z,19.39
2023-03-31T11:47:56.868Z,19.26
2023-03-31T11:50:45.777Z,19.34
2023-03-31T11:53:29.798Z,19.49
2023-03-31T11:56:16.217Z,19.54
2023-03-31T11:59:09.355Z,19.82
2023-03-31T12:02:11.313Z,20.02
2023-03-31T12:04:56.498Z,19.83
2023-03-31T12:07:48.816Z,20.00
2023-03-31T12:10:55.290Z,20.20
2023-03-31T12:13:51.310Z,20.50
2023-03-31T12:16:52.879Z,20.72
2023-03-31T12:19:58.338Z,20.66
2023-03-31T12:22:51.291Z,20.54
2023-03-31T12:25:36.480Z,20.39
2023-03-31T12:28:21.322Z,20.54
2023-03-31T12:31:14.852Z,20.70
2023-03-31T12:34:06.338Z,20.68
2023-03-31T12:37:02.085Z,20.45
2023-03-31T12:39:48.584Z,20.09
2023-03-31T12:43:00.362Z,19.99
2023-03-31T12:45:44.043Z,19.75
2023-03-31T12:48:59.511Z,20.07
2023-03-31T12:52:00.945Z,20.34
2023-03-31T12:54:52.001Z,20.04
2023-03-31T12:57:31.255Z,20.10
2023-03-31T13:00:47.268Z,20.31
2023-03-31T13:04:01.640Z,20.36
2023-03-31T13:07:01.342Z,20.43
2023-03-31T13:09:59.107Z,20.38
2023-03-31T13:12:39.932Z,20.20
2023-03-31T13:15:27.511Z,20.25
2023-03-31T13:18:09.110Z,20.36
2023-03-31T13:20:46.277Z,21.01
2023-03-31T13:23:34.108Z,21.58
2023-03-31T13:26:40.604Z,21.53
2023-03-31T13:30:09.395Z,21.86
2023-03-31T13:33:50.376Z,20.98
2023-03-31T13:37:02.665Z,20.20
2023-03-31T13:40:12.403Z,19.85
2023-03-31T13:43:07.100Z,19.89
2023-03-31T13:46:17.511Z,19.59
2023-03-31T13:49:33.403Z,19.37
2023-03-31T13:52:17.790Z,19.08
2023-03-31T13:55:13.156Z,19.15
2023-03-31T13:58:19.966Z,19.10
2023-03-31T14:01:19.826Z,18.96
2023-03-31T14:04:21.857Z,18.81
2023-03-31T14:07:37.857Z,18.80
2023-03-31T14:10:43.275Z,18.89
2023-03-31T14:13:28.919Z,18.79
2023-03-31T14:16:21.123Z,18.77
2023-03-31T14:22:23.409Z,18.37
2023-03-31T14:25:27.190Z,18.06
2023-03-31T14:28:25.270Z,17.92
2023-03-31T14:31:24.349Z,17.70
2023-03-31T14:34:34.502Z,17.55
2023-03-31T14:37:24.699Z,17.38
2023-03-31T14:40:02.015Z,17.61
2023-03-31T14:42:53.141Z,18.36
2023-03-31T14:45:42.510Z,19.13
2023-03-31T14:48:23.728Z,19.47
2023-03-31T14:51:17.064Z,20.01
2023-03-31T14:54:19.241Z,20.18
2023-03-31T14:57:07.796Z,19.88
2023-03-31T14:59:58.681Z,19.54
2023-03-31T15:02:47.613Z,19.22
2023-03-31T15:05:46.450Z,18.76
2023-03-31T15:08:29.834Z,18.51
2023-03-31T15:11:19.927Z,18.58
2023-03-31T15:14:05.707Z,18.26
2023-03-31T15:16:57.189Z,18.10
2023-03-31T15:19:54.683Z,17.87
2023-03-31T15:22:35.987Z,17.79
2023-03-31T15:25:24.339Z,17.65
2023-03-31T15:28:18.309Z,17.66
2023-03-31T15:31:09.652Z,17.85
2023-03-31T15:33:55.168Z,17.73
2023-03-31T15:36:40.453Z,17.47
2023-03-31T15:39:22.681Z,17.24
2023-03-31T15:42:05.627Z,17.06
2023-03-31T15:45:11.377Z,16.95
2023-03-31T15:47:59.392Z,16.87
2023-03-31T15:50:45.439Z,16.62
2023-03-31T15:53:54.075Z,16.56
2023-03-31T15:56:48.405Z,16.42
2023-03-31T15:59:51.232Z,16.45
2023-03-31T16:02:56.558Z,16.37
2023-03-31T16:06:09.021Z,16.17
2023-03-31T16:09:08.468Z,16.16
2023-03-31T16:12:30.856Z,16.03
2023-03-31T16:15:15.435Z,16.01
2023-03-31T16:18:12.206Z,15.83
2023-03-31T16:21:15.673Z,15.88
2023-03-31T16:23:58.475Z,15.77
2023-03-31T16:26:49.692Z,15.75
2023-03-31T16:29:34.393Z,15.87
2023-03-31T16:32:25.392Z,15.84
2023-03-31T16:34:59.251Z,15.74
2023-03-31T16:37:42.232Z,15.75
2023-03-31T16:40:46.710Z,15.62
2023-03-31T16:43:36.786Z,15.49
2023-03-31T16:46:18.364Z,15.35
2023-03-31T16:49:12.940Z,15.38
2023-03-31T16:52:05.231Z,15.20
2023-03-31T16:54:52.551Z,15.29
2023-03-31T16:57:37.359Z,15.26
2023-03-31T17:00:45.449Z,15.25
2023-03-31T17:03:29.737Z,15.17
2023-03-31T17:06:21.563Z,15.12
2023-03-31T17:09:05.769Z,15.12
2023-03-31T17:11:48.857Z,14.98
2023-03-31T17:14:49.226Z,14.85
2023-03-31T17:17:37.478Z,14.73
2023-03-31T17:20:28.759Z,14.70
2023-03-31T17:23:17.380Z,14.61
2023-03-31T17:25:54.102Z,14.62
2023-03-31T17:28:41.157Z,14.41
2023-03-31T17:31:44.286Z,14.36
2023-03-31T17:34:43.426Z,14.45
2023-03-31T17:37:21.812Z,14.38
2023-03-31T17:40:02.464Z,14.37
2023-03-31T17:43:05.830Z,14.25
2023-03-31T17:46:19.391Z,14.18
2023-03-31T17:49:19.464Z,14.21
2023-03-31T17:52:10.070Z,14.09
2023-03-31T17:54:50.726Z,14.01
2023-03-31T17:57:37.428Z,13.99
2023-03-31T18:00:16.671Z,13.98
2023-03-31T18:03:08.587Z,14.06
2023-03-31T18:05:55.528Z,14.03
2023-03-31T18:08:58.544Z,13.87
2023-03-31T18:11:45.850Z,13.70
2023-03-31T18:14:35.285Z,13.67
2023-03-31T18:17:21.418Z,13.55
2023-03-31T18:20:05.745Z,13.33
2023-03-31T18:22:55.472Z,13.11
2023-03-31T18:25:37.620Z,12.94
2023-03-31T18:28:22.391Z,12.63
2023-03-31T18:31:12.700Z,12.52
2023-03-31T18:33:58.327Z,12.42
2023-03-31T18:36:41.808Z,12.34
2023-03-31T18:39:26.336Z,12.55
2023-03-31T18:42:22.780Z,12.41
2023-03-31T18:45:08.968Z,12.46
2023-03-31T18:47:56.396Z,12.54
2023-03-31T18:50:34.160Z,12.51
2023-03-31T18:53:18.143Z,12.70
2023-03-31T18:56:09.620Z,12.84
2023-03-31T18:58:57.017Z,12.89
2023-03-31T19:01:46.886Z,12.73
2023-03-31T19:04:26.379Z,12.75
2023-03-31T19:07:12.648Z,12.69
2023-03-31T19:09:57.507Z,12.82
2023-03-31T19:12:43.882Z,12.78
2023-03-31T19:15:33.326Z,12.86
2023-03-31T19:18:31.120Z,12.89
2023-03-31T19:21:25.820Z,12.86
2023-03-31T19:24:15.384Z,12.80
2023-03-31T19:27:05.695Z,12.71
2023-03-31T19:29:54.763Z,12.69
2023-03-31T19:32:43.895Z,12.62
2023-03-31T19:35:27.536Z,12.54
2023-03-31T19:38:36.767Z,12.54
2023-03-31T19:41:28.508Z,12.40
2023-03-31T19:44:09.705Z,12.27
2023-03-31T19:46:58.783Z,12.31
2023-03-31T19:49:47.722Z,12.21
2023-03-31T19:52:31.733Z,12.21
2023-03-31T19:55:17.732Z,12.13
2023-03-31T19:58:04.458Z,12.08
2023-03-31T20:00:48.453Z,12.05
2023-03-31T20:03:36.802Z,11.99
2023-03-31T20:06:22.484Z,11.90
2023-03-31T20:09:09.177Z,11.81
2023-03-31T20:11:47.575Z,11.67
2023-03-31T20:14:36.662Z,11.55
2023-03-31T20:17:24.326Z,11.48
2023-03-31T20:20:02.333Z,11.41
2023-03-31T20:22:53.436Z,11.51
2023-03-31T20:25:41.651Z,11.52
2023-03-31T20:28:22.498Z,11.38
2023-03-31T20:31:19.040Z,11.28
2023-03-31T20:34:22.506Z,11.23
2023-03-31T20:37:11.031Z,11.11
2023-03-31T20:39:59.025Z,11.03
2023-03-31T20:42:45.628Z,10.94
2023-03-31T20:45:27.247Z,10.84
2023-03-31T20:48:19.901Z,10.81
2023-03-31T20:51:09.325Z,10.63
2023-03-31T20:53:56.456Z,10.68
2023-03-31T20:56:55.545Z,10.60
2023-03-31T20:59:38.659Z,10.47
2023-03-31T21:02:30.441Z,10.39
2023-03-31T21:05:08.528Z,10.36
2023-03-31T21:08:08.682Z,10.34
2023-03-31T21:11:01.670Z,10.28
2023-03-31T21:13:42.489Z,10.28
2023-03-31T21:16:29.466Z,10.08
2023-03-31T21:19:09.585Z,10.13
2023-03-31T21:21:56.005Z,10.14
2023-03-31T21:24:48.987Z,10.19
2023-03-31T21:27:29.366Z,10.13
2023-03-31T21:30:12.484Z,10.10
2023-03-31T21:32:50.798Z,9.96
2023-03-31T21:35:32.050Z,10.05
2023-03-31T21:38:13.589Z,10.12
2023-03-31T21:41:09.400Z,10.15
2023-03-31T21:44:00.428Z,10.09
2023-03-31T21:46:47.601Z,10.07
2023-03-31T21:49:28.934Z,10.17
2023-03-31T21:52:11.522Z,10.20
2023-03-31T21:54:51.765Z,10.10
2023-03-31T21:57:32.553Z,10.05
2023-03-31T22:00:13.939Z,9.99
2023-03-31T22:03:06.249Z,9.89
2023-03-31T22:06:00.330Z,9.92
2023-03-31T22:08:39.656Z,9.80
2023-03-31T22:11:15.040Z,9.88
2023-03-31T22:13:52.752Z,9.85
2023-03-31T22:16:37.436Z,9.80
2023-03-31T22:19:18.338Z,9.73
2023-03-31T22:21:59.292Z,9.85
2023-03-31T22:24:50.684Z,9.85
2023-03-31T22:27:28.475Z,9.79
2023-03-31T22:30:11.251Z,9.73
2023-03-31T22:32:51.609Z,9.67
2023-03-31T22:35:28.771Z,9.63
2023-03-31T22:38:08.805Z,9.53
2023-03-31T22:40:57.035Z,9.51
2023-03-31T22:43:36.299Z,9.55
2023-03-31T22:46:20.129Z,9.55
2023-03-31T22:48:56.361Z,9.54
2023-03-31T22:51:30.170Z,9.53
2023-03-31T22:54:07.987Z,9.52
2023-03-31T22:56:51.077Z,9.52
2023-03-31T22:59:29.529Z,9.57
2023-03-31T23:02:08.277Z,9.60
2023-03-31T23:04:48.717Z,9.54
2023-03-31T23:07:31.056Z,9.59
2023-03-31T23:10:15.402Z,9.55
2023-03-31T23:13:00.663Z,9.64
2023-03-31T23:15:46.490Z,9.67
2023-03-31T23:18:25.776Z,9.66
2023-03-31T23:21:05.655Z,9.65
2023-03-31T23:23:51.381Z,9.63
2023-03-31T23:26:35.604Z,9.52
2023-03-31T23:29:22.429Z,9.47
2023-03-31T23:32:06.237Z,9.50
2023-03-31T23:34:44.659Z,9.38
2023-03-31T23:37:37.858Z,9.23
2023-03-31T23:40:22.666Z,9.16
2023-03-31T23:43:01.894Z,9.02
2023-03-31T23:45:42.501Z,9.04
2023-03-31T23:48:23.399Z,9.15
2023-03-31T23:51:02.338Z,9.01
2023-03-31T23:53:48.687Z,8.92
2023-03-31T23:56:34.173Z,8.78
2023-03-31T23:59:22.756Z,8.66
